Latest Weather Observations for Sydney Harbour

IDN60901

Issued at 5:51 am EDT Tuesday 3 March 2015 (issued every 10 minutes, with the page automatically refreshed every 10 minutes)

About weather observations | Map of Sydney area stations | Latest observations for Sydney area | Other Formats
Station Details ID: 066196 Name: WEDDING CAKE WEST Lat: -33.84 Lon: 151.26 Height: 6.0 m
Data from the previous 72 hours. | See also: Recent months for locations in New South Wales
Date/Time
EDT
Tmp

°C
App
Tmp
°C
Dew
Point
°C
Rel
Hum
%
Delta-T

°C
Wind Press
QNH
hPa
Press
MSL
hPa
Rain
since
9 am
mm
Dir
 
Spd
km/h
Gust
km/h
Spd
kts
Gust
kts
03/05:30am 19.3 - - - - CALM 0 0 0 0 - - -
03/05:00am 18.9 - - - - W 6 9 3 5 - - -
03/04:30am 19.2 - - - - W 4 6 2 3 - - -
03/04:00am 18.9 - - - - W 2 7 1 4 - - -
03/03:30am 19.6 - - - - W 6 7 3 4 - - -
03/03:00am 19.2 - - - - W 4 7 2 4 - - -
03/02:30am 19.9 - - - - CALM 0 0 0 0 - - -
03/02:00am 19.5 - - - - W 4 7 2 4 - - -
03/01:30am 19.6 - - - - N 7 11 4 6 - - -
03/01:00am 20.0 - - - - N 7 9 4 5 - - -
03/12:30am 20.3 - - - - CALM 0 0 0 0 - - -
 
Date/Time
EDT
Tmp

°C
App
Tmp
°C
Dew
Point
°C
Rel
Hum
%
Delta-T

°C
Wind Press
QNH
hPa
Press
MSL
hPa
Rain
since
9 am
mm
Dir
 
Spd
km/h
Gust
km/h
Spd
kts
Gust
kts
02/11:30pm 20.8 - - - - N 9 11 5 6 - - -
02/11:00pm 21.1 - - - - N 11 11 6 6 - - -
02/10:30pm 21.5 - - - - N 11 15 6 8 - - -
02/10:00pm 22.1 - - - - NNE 17 20 9 11 - - -
02/09:30pm 22.0 - - - - NNE 19 20 10 11 - - -
02/09:00pm 22.1 - - - - NE 19 20 10 11 - - -
02/08:30pm 22.3 - - - - NE 17 22 9 12 - - -
02/08:00pm 22.4 - - - - NE 19 22 10 12 - - -
02/07:30pm 22.4 - - - - ENE 17 20 9 11 - - -
02/07:00pm 22.4 - - - - ENE 13 17 7 9 - - -
02/06:30pm 22.4 - - - - E 13 17 7 9 - - -
02/05:30pm 22.5 - - - - E 19 20 10 11 - - -
02/05:00pm 22.5 - - - - ENE 17 20 9 11 - - -
02/04:30pm 22.6 - - - - E 19 22 10 12 - - -
02/04:00pm 22.7 - - - - E 17 22 9 12 - - -
02/03:30pm 22.8 - - - - ESE 17 24 9 13 - - -
02/03:00pm 22.5 - - - - SE 13 24 7 13 - - -
02/02:30pm 21.5 - - - - S 22 28 12 15 - - -
02/02:00pm 21.1 - - - - S 24 32 13 17 - - -
02/01:30pm 21.2 - - - - S 24 32 13 17 - - -
02/01:00pm 21.3 - - - - S 22 32 12 17 - - -
02/12:30pm 21.3 - - - - S 22 32 12 17 - - -
02/12:00pm 21.4 - - - - S 26 32 14 17 - - -
02/11:30am 20.9 - - - - S 28 33 15 18 - - -
02/11:00am 21.1 - - - - S 28 35 15 19 - - -
02/10:30am 20.9 - - - - SSW 28 37 15 20 - - -
02/10:00am 20.4 - - - - SSW 32 39 17 21 - - -
02/09:30am 20.3 - - - - SSW 32 39 17 21 - - -
02/09:00am 19.9 - - - - SSW 30 35 16 19 - - -
02/08:30am 19.7 - - - - SW 33 41 18 22 - - -
02/08:00am 19.5 - - - - SW 28 33 15 18 - - -
02/07:30am 19.4 - - - - SW 26 35 14 19 - - -
02/07:00am 19.4 - - - - SW 28 33 15 18 - - -
02/06:30am 19.2 - - - - SW 26 32 14 17 - - -
02/06:00am 19.5 - - - - SW 26 32 14 17 - - -
02/05:30am 19.9 - - - - SW 30 35 16 19 - - -
02/05:00am 20.0 - - - - SW 30 35 16 19 - - -
02/04:30am 20.2 - - - - SW 28 35 15 19 - - -
02/04:00am 21.9 - - - - S 28 35 15 19 - - -
02/03:30am 22.0 - - - - SSE 26 35 14 19 - - -
02/03:00am 22.0 - - - - S 26 33 14 18 - - -
02/02:30am 21.8 - - - - S 26 35 14 19 - - -
02/02:00am 21.8 - - - - S 30 39 16 21 - - -
02/01:30am 21.8 - - - - S 28 37 15 20 - - -
02/01:00am 21.8 - - - - SSE 33 44 18 24 - - -
02/12:30am 21.7 - - - - S 30 44 16 24 - - -
02/12:00am 21.8 - - - - SSE 35 54 19 29 - - -
 
Date/Time
EDT
Tmp

°C
App
Tmp
°C
Dew
Point
°C
Rel
Hum
%
Delta-T

°C
Wind Press
QNH
hPa
Press
MSL
hPa
Rain
since
9 am
mm
Dir
 
Spd
km/h
Gust
km/h
Spd
kts
Gust
kts
01/11:59pm 21.9 - - - - S 35 54 19 29 - - -
01/11:30pm 21.9 - - - - S 35 48 19 26 - - -
01/11:00pm 22.1 - - - - S 39 50 21 27 - - -
01/10:52pm 22.1 - - - - S 37 56 20 30 - - -
01/10:30pm 22.4 - - - - S 41 56 22 30 - - -
01/10:00pm 22.5 - - - - S 39 57 21 31 - - -
01/09:30pm 22.4 - - - - S 44 63 24 34 - - -
01/09:27pm 22.4 - - - - S 44 63 24 34 - - -
01/09:00pm 22.4 - - - - S 41 57 22 31 - - -
01/08:35pm 22.2 - - - - S 35 56 19 30 - - -
01/08:30pm 21.9 - - - - S 37 54 20 29 - - -
01/08:00pm 21.0 - - - - S 44 61 24 33 - - -
01/07:33pm 21.1 - - - - S 46 65 25 35 - - -
01/07:30pm 21.3 - - - - S 46 56 25 30 - - -
01/07:03pm 21.6 - - - - S 44 65 24 35 - - -
01/07:00pm 21.8 - - - - S 43 57 23 31 - - -
01/06:41pm 21.9 - - - - S 46 67 25 36 - - -
01/06:30pm 22.1 - - - - S 44 59 24 32 - - -
01/06:00pm 22.2 - - - - S 39 50 21 27 - - -
01/05:39pm 21.8 - - - - SSE 41 59 22 32 - - -
01/05:30pm 21.1 - - - - S 46 59 25 32 - - -
01/05:27pm 21.2 - - - - SSW 48 61 26 33 - - -
01/05:24pm 21.3 - - - - SSW 50 69 27 37 - - -
01/05:12pm 22.5 - - - - SSW 41 65 22 35 - - -
01/05:10pm 22.5 - - - - SSW 37 63 20 34 - - -
01/05:00pm 22.7 - - - - SSW 41 54 22 29 - - -
01/04:54pm 22.8 - - - - SSW 39 50 21 27 - - -
01/04:30pm 22.5 - - - - S 41 54 22 29 - - -
01/04:00pm 24.2 - - - - S 50 87 27 47 - - -
01/03:54pm 24.5 - - - - S 32 87 17 47 - - -
01/03:52pm 25.2 - - - - ESE 24 63 13 34 - - -
01/03:30pm 25.2 - - - - NNE 26 32 14 17 - - -
01/03:00pm 25.7 - - - - NNE 26 32 14 17 - - -
01/02:30pm 27.0 - - - - NE 17 24 9 13 - - -
01/02:00pm 25.9 - - - - NNE 26 30 14 16 - - -
01/01:30pm 26.2 - - - - NNE 19 24 10 13 - - -
01/01:00pm 26.6 - - - - NNE 17 26 9 14 - - -
01/12:30pm 27.8 - - - - NNE 15 20 8 11 - - -
01/12:00pm 28.8 - - - - NNE 17 20 9 11 - - -
01/11:30am 26.4 - - - - NNE 20 24 11 13 - - -
01/11:00am 24.9 - - - - NNE 22 26 12 14 - - -
01/10:30am 24.2 - - - - NNE 19 22 10 12 - - -
01/10:00am 23.8 - - - - NNE 19 20 10 11 - - -
01/09:30am 23.7 - - - - NNE 15 19 8 10 - - -
01/09:00am 23.3 - - - - NNE 17 19 9 10 - - -
01/08:30am 22.9 - - - - N 13 19 7 10 - - -
01/08:00am 22.2 - - - - N 9 11 5 6 - - -
01/07:30am 22.2 - - - - N 13 17 7 9 - - -
01/07:00am 21.9 - - - - N 11 13 6 7 - - -
01/06:30am 22.0 - - - - NNE 13 15 7 8 - - -
01/06:00am 21.8 - - - - N 11 15 6 8 - - -
01/05:30am 22.0 - - - - N 13 15 7 8 - - -
01/05:00am 22.2 - - - - N 13 15 7 8 - - -
01/04:30am 22.3 - - - - NNE 11 13 6 7 - - -
01/04:00am 22.0 - - - - NNE 7 9 4 5 - - -
01/03:30am 22.1 - - - - NNE 9 11 5 6 - - -
01/03:00am 22.2 - - - - NNE 9 9 5 5 - - -
01/02:30am 22.7 - - - - NNE 7 11 4 6 - - -
01/02:00am 22.6 - - - - NNE 7 9 4 5 - - -
01/01:30am 22.6 - - - - NNE 2 9 1 5 - - -
01/01:00am 22.9 - - - - CALM 0 0 0 0 - - -
01/12:30am 23.0 - - - - NNE 6 9 3 5 - - -
01/12:00am 23.2 - - - - NNE 11 13 6 7 - - -
 
Date/Time
EDT
Tmp

°C
App
Tmp
°C
Dew
Point
°C
Rel
Hum
%
Delta-T

°C
Wind Press
QNH
hPa
Press
MSL
hPa
Rain
since
9 am
mm
Dir
 
Spd
km/h
Gust
km/h
Spd
kts
Gust
kts
28/11:30pm 23.4 - - - - NNE 13 17 7 9 - - -
28/11:00pm 23.4 - - - - N 24 28 13 15 - - -
28/10:30pm 23.6 - - - - NNE 32 39 17 21 - - -
28/10:00pm 23.7 - - - - NNE 33 41 18 22 - - -
28/09:30pm 23.7 - - - - NNE 35 44 19 24 - - -
28/09:00pm 23.7 - - - - NNE 33 39 18 21 - - -
28/08:30pm 23.7 - - - - NNE 30 35 16 19 - - -
28/08:00pm 23.7 - - - - NNE 26 32 14 17 - - -
28/07:30pm 23.7 - - - - NNE 26 32 14 17 - - -
28/07:00pm 23.8 - - - - NNE 28 35 15 19 - - -
28/06:30pm 23.8 - - - - NNE 28 35 15 19 - - -
28/06:00pm 23.8 - - - - NE 26 32 14 17 - - -
28/05:30pm 23.8 - - - - NNE 32 41 17 22 - - -
28/05:00pm 23.8 - - - - NNE 33 39 18 21 - - -
28/04:30pm 23.9 - - - - NNE 33 41 18 22 - - -
28/04:00pm 23.8 - - - - NNE 32 37 17 20 - - -
28/03:30pm 23.9 - - - - NNE 28 35 15 19 - - -
28/03:00pm 23.8 - - - - NNE 30 33 16 18 - - -
28/02:30pm 23.4 - - - - ENE 24 30 13 16 - - -
28/02:00pm 23.2 - - - - NE 22 26 12 14 - - -
28/01:30pm 23.3 - - - - ENE 26 30 14 16 - - -
28/01:00pm 23.3 - - - - NNE 20 22 11 12 - - -
28/12:30pm 23.0 - - - - NNE 19 22 10 12 - - -
28/12:00pm 23.0 - - - - NNE 17 20 9 11 - - -
28/11:30am 23.1 - - - - NE 15 19 8 10 - - -
28/11:00am 22.9 - - - - NNE 17 19 9 10 - - -
28/10:30am 22.8 - - - - NE 17 19 9 10 - - -
28/10:00am 22.6 - - - - NE 15 19 8 10 - - -
28/09:30am 22.5 - - - - NNW 9 11 5 6 - - -
28/09:00am 22.1 - - - - NNW 9 11 5 6 - - -
28/08:30am 21.7 - - - - NNW 7 9 4 5 - - -
28/08:00am 21.4 - - - - CALM 0 0 0 0 - - -
28/07:30am 21.2 - - - - NNW 6 9 3 5 - - -
28/07:00am 20.9 - - - - CALM 0 0 0 0 - - -
28/06:30am 20.7 - - - - CALM 0 0 0 0 - - -
28/06:00am 20.6 - - - - NNW 6 7 3 4 - - -

Latest Capital City Observations: Canberra | Sydney | Melbourne | Brisbane | Adelaide | Perth | Hobart | Darwin

Other Formats:

Comma delimited format used in spreadsheet applications
http://www.bom.gov.au/fwo/IDN60901/IDN60901.95766.axf

JavaScript Object Notation format (JSON) in row-major order
http://www.bom.gov.au/fwo/IDN60901/IDN60901.95766.json